sensor_id;sensor_type;location;lat;lon;timestamp;temperature;humidity
24232;DHT22;12364;47.810;8.810;2023-03-21T04:46:56;10.60;90.80
24232;DHT22;12364;47.810;8.810;2023-03-21T04:49:23;10.70;91.00
24232;DHT22;12364;47.810;8.810;2023-03-21T04:51:50;10.60;91.00
24232;DHT22;12364;47.810;8.810;2023-03-21T04:54:17;10.50;91.10
24232;DHT22;12364;47.810;8.810;2023-03-21T04:56:44;10.50;91.10
24232;DHT22;12364;47.810;8.810;2023-03-21T04:59:12;10.50;91.20
24232;DHT22;12364;47.810;8.810;2023-03-21T05:01:40;10.50;91.30
24232;DHT22;12364;47.810;8.810;2023-03-21T05:04:10;10.40;91.30
24232;DHT22;12364;47.810;8.810;2023-03-21T05:06:37;10.40;91.10
24232;DHT22;12364;47.810;8.810;2023-03-21T05:09:04;10.40;91.00
24232;DHT22;12364;47.810;8.810;2023-03-21T05:11:34;10.50;91.10
24232;DHT22;12364;47.810;8.810;2023-03-21T05:14:04;10.50;90.90
24232;DHT22;12364;47.810;8.810;2023-03-21T05:16:32;10.50;90.80
24232;DHT22;12364;47.810;8.810;2023-03-21T05:19:00;10.40;90.70
24232;DHT22;12364;47.810;8.810;2023-03-21T05:21:31;10.50;90.70
24232;DHT22;12364;47.810;8.810;2023-03-21T05:24:11;10.50;90.70
24232;DHT22;12364;47.810;8.810;2023-03-21T05:26:39;10.60;90.60
24232;DHT22;12364;47.810;8.810;2023-03-21T05:29:06;10.50;90.60
24232;DHT22;12364;47.810;8.810;2023-03-21T05:31:33;10.40;90.70
24232;DHT22;12364;47.810;8.810;2023-03-21T05:34:01;10.50;90.70
24232;DHT22;12364;47.810;8.810;2023-03-21T05:36:28;10.40;90.70
24232;DHT22;12364;47.810;8.810;2023-03-21T05:38:55;10.30;90.80
24232;DHT22;12364;47.810;8.810;2023-03-21T05:41:22;10.30;90.90
24232;DHT22;12364;47.810;8.810;2023-03-21T05:43:49;10.30;91.00
24232;DHT22;12364;47.810;8.810;2023-03-21T05:46:17;10.30;91.10
24232;DHT22;12364;47.810;8.810;2023-03-21T05:48:44;10.30;91.00
24232;DHT22;12364;47.810;8.810;2023-03-21T05:51:11;10.30;91.00
24232;DHT22;12364;47.810;8.810;2023-03-21T05:53:38;10.30;91.00
24232;DHT22;12364;47.810;8.810;2023-03-21T05:56:05;10.30;91.10
24232;DHT22;12364;47.810;8.810;2023-03-21T05:58:32;10.30;91.10
24232;DHT22;12364;47.810;8.810;2023-03-21T06:00:59;10.30;91.10
24232;DHT22;12364;47.810;8.810;2023-03-21T06:03:26;10.30;91.00
24232;DHT22;12364;47.810;8.810;2023-03-21T06:05:53;10.30;91.00
24232;DHT22;12364;47.810;8.810;2023-03-21T06:08:20;10.30;91.10
24232;DHT22;12364;47.810;8.810;2023-03-21T06:10:47;10.30;91.10
24232;DHT22;12364;47.810;8.810;2023-03-21T06:13:14;10.30;91.20
24232;DHT22;12364;47.810;8.810;2023-03-21T06:15:41;10.20;91.20
24232;DHT22;12364;47.810;8.810;2023-03-21T06:18:08;10.20;91.30
24232;DHT22;12364;47.810;8.810;2023-03-21T06:20:35;10.20;91.40
24232;DHT22;12364;47.810;8.810;2023-03-21T06:23:02;10.20;91.50
24232;DHT22;12364;47.810;8.810;2023-03-21T06:25:29;10.20;91.50
24232;DHT22;12364;47.810;8.810;2023-03-21T06:27:56;10.20;91.50
24232;DHT22;12364;47.810;8.810;2023-03-21T06:30:23;10.30;91.40
24232;DHT22;12364;47.810;8.810;2023-03-21T06:32:50;10.30;91.50
24232;DHT22;12364;47.810;8.810;2023-03-21T06:35:17;10.40;91.80
24232;DHT22;12364;47.810;8.810;2023-03-21T06:37:44;10.40;92.00
24232;DHT22;12364;47.810;8.810;2023-03-21T06:40:15;10.40;92.20
24232;DHT22;12364;47.810;8.810;2023-03-21T06:42:42;10.40;92.00
24232;DHT22;12364;47.810;8.810;2023-03-21T06:45:09;10.30;92.00
24232;DHT22;12364;47.810;8.810;2023-03-21T06:47:36;10.30;92.20
24232;DHT22;12364;47.810;8.810;2023-03-21T06:50:03;10.30;92.30
24232;DHT22;12364;47.810;8.810;2023-03-21T06:52:32;10.30;92.50
24232;DHT22;12364;47.810;8.810;2023-03-21T06:54:59;10.30;92.80
24232;DHT22;12364;47.810;8.810;2023-03-21T06:57:26;10.30;93.20
24232;DHT22;12364;47.810;8.810;2023-03-21T06:59:53;10.30;93.00
24232;DHT22;12364;47.810;8.810;2023-03-21T07:02:20;10.40;93.10
24232;DHT22;12364;47.810;8.810;2023-03-21T07:04:47;10.40;93.20
24232;DHT22;12364;47.810;8.810;2023-03-21T07:07:14;10.50;93.00
24232;DHT22;12364;47.810;8.810;2023-03-21T07:09:41;10.60;93.10
24232;DHT22;12364;47.810;8.810;2023-03-21T07:12:08;10.60;93.10
24232;DHT22;12364;47.810;8.810;2023-03-21T07:14:36;10.70;93.20
24232;DHT22;12364;47.810;8.810;2023-03-21T07:17:03;10.80;93.10
24232;DHT22;12364;47.810;8.810;2023-03-21T07:19:30;10.90;93.10
24232;DHT22;12364;47.810;8.810;2023-03-21T07:21:57;11.00;93.10
24232;DHT22;12364;47.810;8.810;2023-03-21T07:24:24;11.00;93.00
24232;DHT22;12364;47.810;8.810;2023-03-21T07:26:52;11.00;93.00
24232;DHT22;12364;47.810;8.810;2023-03-21T07:29:19;11.10;93.00
24232;DHT22;12364;47.810;8.810;2023-03-21T07:31:48;11.10;92.90
24232;DHT22;12364;47.810;8.810;2023-03-21T07:34:15;11.20;93.20
24232;DHT22;12364;47.810;8.810;2023-03-21T07:36:43;11.20;93.10
24232;DHT22;12364;47.810;8.810;2023-03-21T07:39:10;11.40;93.30
24232;DHT22;12364;47.810;8.810;2023-03-21T07:41:37;11.30;93.20
24232;DHT22;12364;47.810;8.810;2023-03-21T07:44:04;11.40;93.20
24232;DHT22;12364;47.810;8.810;2023-03-21T07:46:32;11.50;93.10
24232;DHT22;12364;47.810;8.810;2023-03-21T07:48:59;11.50;93.00
24232;DHT22;12364;47.810;8.810;2023-03-21T07:51:26;11.60;93.10
24232;DHT22;12364;47.810;8.810;2023-03-21T07:53:53;11.60;93.10
24232;DHT22;12364;47.810;8.810;2023-03-21T07:56:20;11.70;93.10
24232;DHT22;12364;47.810;8.810;2023-03-21T07:58:47;11.70;93.00
24232;DHT22;12364;47.810;8.810;2023-03-21T08:01:14;11.80;93.10
24232;DHT22;12364;47.810;8.810;2023-03-21T08:03:41;11.80;93.00
24232;DHT22;12364;47.810;8.810;2023-03-21T08:06:09;11.90;93.10
24232;DHT22;12364;47.810;8.810;2023-03-21T08:08:36;11.90;93.10
24232;DHT22;12364;47.810;8.810;2023-03-21T08:11:03;11.90;93.10
24232;DHT22;12364;47.810;8.810;2023-03-21T08:13:31;12.00;93.00
24232;DHT22;12364;47.810;8.810;2023-03-21T08:15:58;12.00;92.90
24232;DHT22;12364;47.810;8.810;2023-03-21T08:18:25;12.10;93.00
24232;DHT22;12364;47.810;8.810;2023-03-21T08:20:53;12.20;92.90
24232;DHT22;12364;47.810;8.810;2023-03-21T08:23:20;12.20;92.90
24232;DHT22;12364;47.810;8.810;2023-03-21T08:25:51;12.20;92.90
24232;DHT22;12364;47.810;8.810;2023-03-21T08:28:19;12.30;93.00
24232;DHT22;12364;47.810;8.810;2023-03-21T08:30:46;12.30;93.10
24232;DHT22;12364;47.810;8.810;2023-03-21T08:33:14;12.30;93.00
24232;DHT22;12364;47.810;8.810;2023-03-21T08:35:41;12.40;93.00
24232;DHT22;12364;47.810;8.810;2023-03-21T08:38:09;12.40;93.10
24232;DHT22;12364;47.810;8.810;2023-03-21T08:40:36;12.50;93.30
24232;DHT22;12364;47.810;8.810;2023-03-21T08:43:03;12.50;93.20
24232;DHT22;12364;47.810;8.810;2023-03-21T08:45:30;12.60;93.10
24232;DHT22;12364;47.810;8.810;2023-03-21T08:47:57;12.70;93.20
24232;DHT22;12364;47.810;8.810;2023-03-21T08:50:25;12.70;93.30
24232;DHT22;12364;47.810;8.810;2023-03-21T08:52:53;12.80;93.20
24232;DHT22;12364;47.810;8.810;2023-03-21T08:55:20;12.90;93.40
24232;DHT22;12364;47.810;8.810;2023-03-21T08:57:47;13.00;93.40
24232;DHT22;12364;47.810;8.810;2023-03-21T09:00:15;13.10;93.50
24232;DHT22;12364;47.810;8.810;2023-03-21T09:02:44;13.20;93.70
24232;DHT22;12364;47.810;8.810;2023-03-21T09:05:12;13.20;93.10
24232;DHT22;12364;47.810;8.810;2023-03-21T09:07:39;13.30;93.20
24232;DHT22;12364;47.810;8.810;2023-03-21T09:10:08;13.40;93.20
24232;DHT22;12364;47.810;8.810;2023-03-21T09:12:52;13.50;93.20
24232;DHT22;12364;47.810;8.810;2023-03-21T09:15:19;13.50;92.60
24232;DHT22;12364;47.810;8.810;2023-03-21T09:17:47;13.60;92.70
24232;DHT22;12364;47.810;8.810;2023-03-21T09:20:19;13.70;92.60
24232;DHT22;12364;47.810;8.810;2023-03-21T09:22:51;13.70;92.70
24232;DHT22;12364;47.810;8.810;2023-03-21T09:25:19;13.90;92.60
24232;DHT22;12364;47.810;8.810;2023-03-21T09:27:47;13.90;92.10
24232;DHT22;12364;47.810;8.810;2023-03-21T09:30:16;13.90;91.80
24232;DHT22;12364;47.810;8.810;2023-03-21T09:32:43;14.00;91.90
24232;DHT22;12364;47.810;8.810;2023-03-21T09:35:15;14.10;92.10
24232;DHT22;12364;47.810;8.810;2023-03-21T09:37:44;14.10;92.10
24232;DHT22;12364;47.810;8.810;2023-03-21T09:40:14;14.10;91.90
24232;DHT22;12364;47.810;8.810;2023-03-21T09:42:57;14.10;91.90
24232;DHT22;12364;47.810;8.810;2023-03-21T09:45:34;14.20;92.30
24232;DHT22;12364;47.810;8.810;2023-03-21T09:48:04;14.30;91.90
24232;DHT22;12364;47.810;8.810;2023-03-21T09:50:34;14.40;92.00
24232;DHT22;12364;47.810;8.810;2023-03-21T09:53:09;14.40;92.10
24232;DHT22;12364;47.810;8.810;2023-03-21T09:55:39;14.50;92.00
24232;DHT22;12364;47.810;8.810;2023-03-21T10:00:41;14.60;91.50
24232;DHT22;12364;47.810;8.810;2023-03-21T10:03:16;14.60;91.60
24232;DHT22;12364;47.810;8.810;2023-03-21T10:05:45;14.70;91.50
24232;DHT22;12364;47.810;8.810;2023-03-21T10:08:17;14.80;91.50
24232;DHT22;12364;47.810;8.810;2023-03-21T10:10:46;14.80;91.50
24232;DHT22;12364;47.810;8.810;2023-03-21T10:13:24;14.90;91.30
24232;DHT22;12364;47.810;8.810;2023-03-21T10:15:55;15.00;91.30
24232;DHT22;12364;47.810;8.810;2023-03-21T10:18:23;15.00;91.30
24232;DHT22;12364;47.810;8.810;2023-03-21T10:20:51;15.10;91.40
24232;DHT22;12364;47.810;8.810;2023-03-21T10:23:19;15.20;91.30
24232;DHT22;12364;47.810;8.810;2023-03-21T10:28:15;15.20;90.40
24232;DHT22;12364;47.810;8.810;2023-03-21T10:30:47;15.20;90.40
24232;DHT22;12364;47.810;8.810;2023-03-21T10:33:17;15.30;90.50
24232;DHT22;12364;47.810;8.810;2023-03-21T10:35:48;15.30;90.50
24232;DHT22;12364;47.810;8.810;2023-03-21T10:38:18;15.40;90.60
24232;DHT22;12364;47.810;8.810;2023-03-21T10:40:46;15.50;90.70
24232;DHT22;12364;47.810;8.810;2023-03-21T10:43:17;15.50;90.70
24232;DHT22;12364;47.810;8.810;2023-03-21T10:45:45;15.60;90.60
24232;DHT22;12364;47.810;8.810;2023-03-21T10:48:13;15.60;90.70
24232;DHT22;12364;47.810;8.810;2023-03-21T10:50:41;15.70;90.60
24232;DHT22;12364;47.810;8.810;2023-03-21T10:53:13;15.70;90.50
24232;DHT22;12364;47.810;8.810;2023-03-21T10:55:41;15.80;90.70
24232;DHT22;12364;47.810;8.810;2023-03-21T10:58:12;15.80;90.50
24232;DHT22;12364;47.810;8.810;2023-03-21T11:00:44;15.90;90.70
24232;DHT22;12364;47.810;8.810;2023-03-21T11:03:29;15.90;90.40
24232;DHT22;12364;47.810;8.810;2023-03-21T11:05:59;15.90;90.50
24232;DHT22;12364;47.810;8.810;2023-03-21T11:08:27;16.00;90.50
24232;DHT22;12364;47.810;8.810;2023-03-21T11:10:59;16.00;90.40
24232;DHT22;12364;47.810;8.810;2023-03-21T11:13:37;16.20;90.40
24232;DHT22;12364;47.810;8.810;2023-03-21T11:18:41;16.10;89.90
24232;DHT22;12364;47.810;8.810;2023-03-21T11:21:09;16.10;89.80
24232;DHT22;12364;47.810;8.810;2023-03-21T11:23:39;16.20;90.00
24232;DHT22;12364;47.810;8.810;2023-03-21T11:26:11;16.20;90.10
24232;DHT22;12364;47.810;8.810;2023-03-21T11:28:39;16.30;90.00
24232;DHT22;12364;47.810;8.810;2023-03-21T11:31:07;16.30;89.00
24232;DHT22;12364;47.810;8.810;2023-03-21T11:33:36;16.40;88.90
24232;DHT22;12364;47.810;8.810;2023-03-21T11:36:05;16.40;88.90
24232;DHT22;12364;47.810;8.810;2023-03-21T11:38:37;16.40;88.40
24232;DHT22;12364;47.810;8.810;2023-03-21T11:41:04;16.50;89.10
24232;DHT22;12364;47.810;8.810;2023-03-21T11:43:36;16.50;89.50
24232;DHT22;12364;47.810;8.810;2023-03-21T11:48:32;16.50;89.10
24232;DHT22;12364;47.810;8.810;2023-03-21T11:51:01;16.60;89.00
24232;DHT22;12364;47.810;8.810;2023-03-21T11:53:36;16.60;88.90
24232;DHT22;12364;47.810;8.810;2023-03-21T12:01:31;16.70;88.70
24232;DHT22;12364;47.810;8.810;2023-03-21T12:07:32;16.80;88.80
24232;DHT22;12364;47.810;8.810;2023-03-21T12:12:16;16.90;88.40
24232;DHT22;12364;47.810;8.810;2023-03-21T12:15:18;16.90;88.30
24232;DHT22;12364;47.810;8.810;2023-03-21T12:18:22;16.90;88.20
24232;DHT22;12364;47.810;8.810;2023-03-21T12:25:38;16.90;87.50
24232;DHT22;12364;47.810;8.810;2023-03-21T12:41:37;17.20;87.30
24232;DHT22;12364;47.810;8.810;2023-03-21T12:44:09;17.00;86.90
24232;DHT22;12364;47.810;8.810;2023-03-21T12:49:06;17.10;87.20
24232;DHT22;12364;47.810;8.810;2023-03-21T12:51:41;17.30;86.10
24232;DHT22;12364;47.810;8.810;2023-03-21T12:54:12;17.20;86.20
24232;DHT22;12364;47.810;8.810;2023-03-21T12:57:00;17.30;86.00
24232;DHT22;12364;47.810;8.810;2023-03-21T12:59:36;17.30;86.70
24232;DHT22;12364;47.810;8.810;2023-03-21T13:02:15;17.30;86.00
24232;DHT22;12364;47.810;8.810;2023-03-21T13:04:48;17.40;85.90
24232;DHT22;12364;47.810;8.810;2023-03-21T13:07:18;17.30;86.00
24232;DHT22;12364;47.810;8.810;2023-03-21T13:09:46;17.40;85.60
24232;DHT22;12364;47.810;8.810;2023-03-21T13:15:42;17.50;85.50
24232;DHT22;12364;47.810;8.810;2023-03-21T13:23:06;17.50;86.10
24232;DHT22;12364;47.810;8.810;2023-03-21T13:25:38;17.70;86.10
24232;DHT22;12364;47.810;8.810;2023-03-21T13:28:11;17.60;86.20
24232;DHT22;12364;47.810;8.810;2023-03-21T13:30:39;17.60;85.70
24232;DHT22;12364;47.810;8.810;2023-03-21T13:33:10;17.70;85.40
24232;DHT22;12364;47.810;8.810;2023-03-21T13:35:38;17.70;85.30
24232;DHT22;12364;47.810;8.810;2023-03-21T13:38:18;17.70;85.50
24232;DHT22;12364;47.810;8.810;2023-03-21T13:40:50;17.80;86.00
24232;DHT22;12364;47.810;8.810;2023-03-21T13:43:34;17.90;86.40
24232;DHT22;12364;47.810;8.810;2023-03-21T13:50:10;17.80;83.30
24232;DHT22;12364;47.810;8.810;2023-03-21T13:54:48;17.90;83.60
24232;DHT22;12364;47.810;8.810;2023-03-21T13:57:36;17.90;83.60
24232;DHT22;12364;47.810;8.810;2023-03-21T14:00:14;17.90;84.20
24232;DHT22;12364;47.810;8.810;2023-03-21T14:02:51;17.90;84.40
24232;DHT22;12364;47.810;8.810;2023-03-21T14:05:19;17.90;84.40
24232;DHT22;12364;47.810;8.810;2023-03-21T14:07:47;18.00;85.00
24232;DHT22;12364;47.810;8.810;2023-03-21T14:10:27;18.10;85.10
24232;DHT22;12364;47.810;8.810;2023-03-21T14:12:55;18.10;85.20
24232;DHT22;12364;47.810;8.810;2023-03-21T14:15:26;18.20;84.20
24232;DHT22;12364;47.810;8.810;2023-03-21T14:17:56;18.20;84.10
24232;DHT22;12364;47.810;8.810;2023-03-21T14:20:26;18.00;84.20
24232;DHT22;12364;47.810;8.810;2023-03-21T14:22:53;18.00;83.60
24232;DHT22;12364;47.810;8.810;2023-03-21T14:25:21;18.00;84.60
24232;DHT22;12364;47.810;8.810;2023-03-21T14:27:53;18.00;83.50
24232;DHT22;12364;47.810;8.810;2023-03-21T14:30:22;18.00;83.90
24232;DHT22;12364;47.810;8.810;2023-03-21T14:32:52;18.10;84.00
24232;DHT22;12364;47.810;8.810;2023-03-21T14:35:19;18.10;83.80
24232;DHT22;12364;47.810;8.810;2023-03-21T14:37:47;18.10;83.60
24232;DHT22;12364;47.810;8.810;2023-03-21T14:40:24;18.10;83.20
24232;DHT22;12364;47.810;8.810;2023-03-21T14:42:52;18.20;82.90
24232;DHT22;12364;47.810;8.810;2023-03-21T14:45:21;18.20;83.20
24232;DHT22;12364;47.810;8.810;2023-03-21T14:50:38;18.20;83.00
24232;DHT22;12364;47.810;8.810;2023-03-21T14:53:06;18.20;83.40
24232;DHT22;12364;47.810;8.810;2023-03-21T14:55:40;18.20;82.40
24232;DHT22;12364;47.810;8.810;2023-03-21T14:58:10;18.20;82.60
24232;DHT22;12364;47.810;8.810;2023-03-21T15:00:38;18.20;83.10
24232;DHT22;12364;47.810;8.810;2023-03-21T15:03:05;18.20;82.90
24232;DHT22;12364;47.810;8.810;2023-03-21T15:05:35;18.20;83.20
24232;DHT22;12364;47.810;8.810;2023-03-21T15:08:08;18.20;82.90
24232;DHT22;12364;47.810;8.810;2023-03-21T15:10:38;18.20;83.30
24232;DHT22;12364;47.810;8.810;2023-03-21T15:15:38;18.20;83.20
24232;DHT22;12364;47.810;8.810;2023-03-21T15:18:06;18.20;83.00
24232;DHT22;12364;47.810;8.810;2023-03-21T15:20:35;18.20;83.10
24232;DHT22;12364;47.810;8.810;2023-03-21T15:23:03;18.20;83.00
24232;DHT22;12364;47.810;8.810;2023-03-21T15:25:32;18.20;82.90
24232;DHT22;12364;47.810;8.810;2023-03-21T15:28:01;18.30;82.90
24232;DHT22;12364;47.810;8.810;2023-03-21T15:30:30;18.30;83.10
24232;DHT22;12364;47.810;8.810;2023-03-21T15:33:07;18.30;82.50
24232;DHT22;12364;47.810;8.810;2023-03-21T15:35:38;18.30;81.50
24232;DHT22;12364;47.810;8.810;2023-03-21T15:38:19;18.20;81.70
24232;DHT22;12364;47.810;8.810;2023-03-21T15:40:46;18.20;81.90
24232;DHT22;12364;47.810;8.810;2023-03-21T15:43:14;18.30;81.50
24232;DHT22;12364;47.810;8.810;2023-03-21T15:45:48;18.30;81.50
24232;DHT22;12364;47.810;8.810;2023-03-21T15:48:15;18.30;80.90
24232;DHT22;12364;47.810;8.810;2023-03-21T15:50:57;18.30;80.30
24232;DHT22;12364;47.810;8.810;2023-03-21T15:53:25;18.30;80.20
24232;DHT22;12364;47.810;8.810;2023-03-21T15:55:55;18.30;80.40
24232;DHT22;12364;47.810;8.810;2023-03-21T15:58:23;18.30;80.00
24232;DHT22;12364;47.810;8.810;2023-03-21T16:00:52;18.30;80.00
24232;DHT22;12364;47.810;8.810;2023-03-21T16:03:22;18.30;80.10
24232;DHT22;12364;47.810;8.810;2023-03-21T16:08:41;18.40;79.90
24232;DHT22;12364;47.810;8.810;2023-03-21T16:13:48;18.40;79.80
24232;DHT22;12364;47.810;8.810;2023-03-21T16:16:22;18.40;79.70
24232;DHT22;12364;47.810;8.810;2023-03-21T16:18:50;18.30;78.80
24232;DHT22;12364;47.810;8.810;2023-03-21T16:21:18;18.30;79.00
24232;DHT22;12364;47.810;8.810;2023-03-21T16:23:46;18.30;78.50
24232;DHT22;12364;47.810;8.810;2023-03-21T16:26:14;18.30;79.00
24232;DHT22;12364;47.810;8.810;2023-03-21T16:28:43;18.30;80.20
24232;DHT22;12364;47.810;8.810;2023-03-21T16:31:17;18.50;79.50
24232;DHT22;12364;47.810;8.810;2023-03-21T16:33:45;18.30;79.10
24232;DHT22;12364;47.810;8.810;2023-03-21T16:36:16;18.30;79.30
24232;DHT22;12364;47.810;8.810;2023-03-21T16:38:44;18.30;78.90
24232;DHT22;12364;47.810;8.810;2023-03-21T16:41:12;18.30;79.20
24232;DHT22;12364;47.810;8.810;2023-03-21T16:43:40;18.30;79.80
24232;DHT22;12364;47.810;8.810;2023-03-21T16:48:40;18.30;79.50
24232;DHT22;12364;47.810;8.810;2023-03-21T16:51:10;18.40;80.10
24232;DHT22;12364;47.810;8.810;2023-03-21T16:53:38;18.20;79.40
24232;DHT22;12364;47.810;8.810;2023-03-21T16:56:07;18.20;79.20
24232;DHT22;12364;47.810;8.810;2023-03-21T16:58:35;18.10;78.30
24232;DHT22;12364;47.810;8.810;2023-03-21T17:01:02;18.10;78.90
24232;DHT22;12364;47.810;8.810;2023-03-21T17:03:29;18.10;80.50
24232;DHT22;12364;47.810;8.810;2023-03-21T17:05:56;18.10;81.70
24232;DHT22;12364;47.810;8.810;2023-03-21T17:08:23;18.10;82.20
24232;DHT22;12364;47.810;8.810;2023-03-21T17:10:52;18.10;81.10
24232;DHT22;12364;47.810;8.810;2023-03-21T17:13:19;18.00;80.80
24232;DHT22;12364;47.810;8.810;2023-03-21T17:15:46;18.00;81.10
24232;DHT22;12364;47.810;8.810;2023-03-21T17:18:13;18.00;81.10
24232;DHT22;12364;47.810;8.810;2023-03-21T17:20:40;17.90;81.60
24232;DHT22;12364;47.810;8.810;2023-03-21T17:23:07;17.90;82.00
24232;DHT22;12364;47.810;8.810;2023-03-21T17:25:35;17.80;81.80
24232;DHT22;12364;47.810;8.810;2023-03-21T17:28:02;17.80;82.00
24232;DHT22;12364;47.810;8.810;2023-03-21T17:30:30;17.70;82.00
24232;DHT22;12364;47.810;8.810;2023-03-21T17:32:58;17.70;82.40
24232;DHT22;12364;47.810;8.810;2023-03-21T17:35:25;17.60;83.20
24232;DHT22;12364;47.810;8.810;2023-03-21T17:37:53;17.60;83.40
24232;DHT22;12364;47.810;8.810;2023-03-21T17:40:27;17.50;83.30
24232;DHT22;12364;47.810;8.810;2023-03-21T17:42:55;17.50;82.60
24232;DHT22;12364;47.810;8.810;2023-03-21T17:45:23;17.50;82.90
24232;DHT22;12364;47.810;8.810;2023-03-21T17:47:50;17.40;82.90
24232;DHT22;12364;47.810;8.810;2023-03-21T17:50:18;17.40;83.00
24232;DHT22;12364;47.810;8.810;2023-03-21T17:52:46;17.30;82.40
24232;DHT22;12364;47.810;8.810;2023-03-21T17:55:16;17.30;83.00
24232;DHT22;12364;47.810;8.810;2023-03-21T17:57:45;17.30;82.90
24232;DHT22;12364;47.810;8.810;2023-03-21T18:00:14;17.20;83.00
24232;DHT22;12364;47.810;8.810;2023-03-21T18:02:41;17.20;83.20
24232;DHT22;12364;47.810;8.810;2023-03-21T18:05:08;17.20;83.10
24232;DHT22;12364;47.810;8.810;2023-03-21T18:07:35;17.20;83.30
24232;DHT22;12364;47.810;8.810;2023-03-21T18:10:24;17.10;82.80
24232;DHT22;12364;47.810;8.810;2023-03-21T18:12:51;17.10;83.30
24232;DHT22;12364;47.810;8.810;2023-03-21T18:15:22;17.10;82.90
24232;DHT22;12364;47.810;8.810;2023-03-21T18:17:49;17.00;83.20
24232;DHT22;12364;47.810;8.810;2023-03-21T18:20:18;17.00;84.00
24232;DHT22;12364;47.810;8.810;2023-03-21T18:22:46;17.00;83.80
24232;DHT22;12364;47.810;8.810;2023-03-21T18:25:14;17.00;83.80
24232;DHT22;12364;47.810;8.810;2023-03-21T18:27:42;17.00;84.10
24232;DHT22;12364;47.810;8.810;2023-03-21T18:30:29;16.90;84.00
24232;DHT22;12364;47.810;8.810;2023-03-21T18:33:17;16.90;84.40
24232;DHT22;12364;47.810;8.810;2023-03-21T18:35:44;16.90;84.90
24232;DHT22;12364;47.810;8.810;2023-03-21T18:38:12;17.00;84.80
24232;DHT22;12364;47.810;8.810;2023-03-21T18:40:39;16.80;84.90
24232;DHT22;12364;47.810;8.810;2023-03-21T18:43:07;16.80;84.70
24232;DHT22;12364;47.810;8.810;2023-03-21T18:45:54;16.70;85.10
24232;DHT22;12364;47.810;8.810;2023-03-21T18:48:21;16.70;85.10
24232;DHT22;12364;47.810;8.810;2023-03-21T18:50:48;16.60;84.90
24232;DHT22;12364;47.810;8.810;2023-03-21T18:53:15;16.80;85.20
24232;DHT22;12364;47.810;8.810;2023-03-21T18:55:43;16.60;84.90
24232;DHT22;12364;47.810;8.810;2023-03-21T18:58:13;16.60;85.30
24232;DHT22;12364;47.810;8.810;2023-03-21T19:00:42;16.50;85.40
24232;DHT22;12364;47.810;8.810;2023-03-21T19:03:09;16.50;86.00
24232;DHT22;12364;47.810;8.810;2023-03-21T19:05:59;16.50;86.30
24232;DHT22;12364;47.810;8.810;2023-03-21T19:08:26;16.50;86.10
24232;DHT22;12364;47.810;8.810;2023-03-21T19:10:53;16.50;86.20
24232;DHT22;12364;47.810;8.810;2023-03-21T19:13:27;16.50;86.20
24232;DHT22;12364;47.810;8.810;2023-03-21T19:15:54;16.40;86.80
24232;DHT22;12364;47.810;8.810;2023-03-21T19:18:22;16.40;86.60
24232;DHT22;12364;47.810;8.810;2023-03-21T19:21:09;16.40;86.90
24232;DHT22;12364;47.810;8.810;2023-03-21T19:23:36;16.40;87.30
24232;DHT22;12364;47.810;8.810;2023-03-21T19:26:23;16.30;87.40
24232;DHT22;12364;47.810;8.810;2023-03-21T19:28:51;16.30;87.50
24232;DHT22;12364;47.810;8.810;2023-03-21T19:31:18;16.20;87.20
24232;DHT22;12364;47.810;8.810;2023-03-21T19:33:46;16.30;87.60
24232;DHT22;12364;47.810;8.810;2023-03-21T19:36:13;16.10;87.90
24232;DHT22;12364;47.810;8.810;2023-03-21T19:38:48;16.10;88.50
24232;DHT22;12364;47.810;8.810;2023-03-21T19:41:15;16.20;88.40
24232;DHT22;12364;47.810;8.810;2023-03-21T19:43:42;16.20;88.40
24232;DHT22;12364;47.810;8.810;2023-03-21T19:46:20;16.20;88.30
24232;DHT22;12364;47.810;8.810;2023-03-21T19:48:51;16.10;88.40
24232;DHT22;12364;47.810;8.810;2023-03-21T19:51:23;16.10;88.70
24232;DHT22;12364;47.810;8.810;2023-03-21T19:54:01;16.10;89.20
24232;DHT22;12364;47.810;8.810;2023-03-21T19:56:29;16.00;89.10
24232;DHT22;12364;47.810;8.810;2023-03-21T19:58:57;16.00;89.10
24232;DHT22;12364;47.810;8.810;2023-03-21T20:01:25;16.00;89.50
24232;DHT22;12364;47.810;8.810;2023-03-21T20:03:52;16.00;88.80
24232;DHT22;12364;47.810;8.810;2023-03-21T20:06:19;16.00;89.50
24232;DHT22;12364;47.810;8.810;2023-03-21T20:08:52;15.90;89.40
24232;DHT22;12364;47.810;8.810;2023-03-21T20:11:42;15.90;89.70
24232;DHT22;12364;47.810;8.810;2023-03-21T20:14:09;15.80;89.60
24232;DHT22;12364;47.810;8.810;2023-03-21T20:16:36;15.80;90.00
24232;DHT22;12364;47.810;8.810;2023-03-21T20:19:03;15.80;90.00
24232;DHT22;12364;47.810;8.810;2023-03-21T20:21:31;15.80;90.00
24232;DHT22;12364;47.810;8.810;2023-03-21T20:24:11;15.90;90.10
24232;DHT22;12364;47.810;8.810;2023-03-21T20:26:39;15.70;90.00
24232;DHT22;12364;47.810;8.810;2023-03-21T20:29:06;15.80;89.70
24232;DHT22;12364;47.810;8.810;2023-03-21T20:31:53;15.70;89.60
24232;DHT22;12364;47.810;8.810;2023-03-21T20:34:20;15.60;89.70
24232;DHT22;12364;47.810;8.810;2023-03-21T20:36:47;15.60;89.90
24232;DHT22;12364;47.810;8.810;2023-03-21T20:39:14;15.60;90.00
24232;DHT22;12364;47.810;8.810;2023-03-21T20:41:41;15.60;89.90
24232;DHT22;12364;47.810;8.810;2023-03-21T20:44:08;15.60;90.10
24232;DHT22;12364;47.810;8.810;2023-03-21T20:46:56;15.60;90.10
24232;DHT22;12364;47.810;8.810;2023-03-21T20:49:23;15.60;90.10
24232;DHT22;12364;47.810;8.810;2023-03-21T20:51:50;15.60;90.10
24232;DHT22;12364;47.810;8.810;2023-03-21T20:54:37;15.60;90.40
24232;DHT22;12364;47.810;8.810;2023-03-21T20:57:04;15.60;90.40
24232;DHT22;12364;47.810;8.810;2023-03-21T20:59:31;15.60;90.40
24232;DHT22;12364;47.810;8.810;2023-03-21T21:01:59;15.50;90.30
24232;DHT22;12364;47.810;8.810;2023-03-21T21:04:26;15.60;90.50
24232;DHT22;12364;47.810;8.810;2023-03-21T21:07:17;15.50;90.40
24232;DHT22;12364;47.810;8.810;2023-03-21T21:09:44;15.50;90.50
24232;DHT22;12364;47.810;8.810;2023-03-21T21:12:12;15.40;90.50
24232;DHT22;12364;47.810;8.810;2023-03-21T21:14:41;15.40;90.60
24232;DHT22;12364;47.810;8.810;2023-03-21T21:17:08;15.30;90.50
24232;DHT22;12364;47.810;8.810;2023-03-21T21:19:55;15.30;90.60
24232;DHT22;12364;47.810;8.810;2023-03-21T21:22:22;15.30;90.50
24232;DHT22;12364;47.810;8.810;2023-03-21T21:24:49;15.30;90.50
24232;DHT22;12364;47.810;8.810;2023-03-21T21:27:16;15.30;90.50
24232;DHT22;12364;47.810;8.810;2023-03-21T21:29:43;15.30;90.50
24232;DHT22;12364;47.810;8.810;2023-03-21T21:32:13;15.30;90.50
24232;DHT22;12364;47.810;8.810;2023-03-21T21:34:42;15.20;90.40
24232;DHT22;12364;47.810;8.810;2023-03-21T21:37:09;15.20;90.50
24232;DHT22;12364;47.810;8.810;2023-03-21T21:39:36;15.20;90.80
24232;DHT22;12364;47.810;8.810;2023-03-21T21:42:04;15.20;90.80